createdAt,value
2024-02-21T00:00:31.091Z,35.97
2024-02-21T00:03:01.078Z,35.97
2024-02-21T00:05:27.969Z,32.90
2024-02-21T00:07:54.564Z,37.40
2024-02-21T00:10:21.130Z,42.20
2024-02-21T00:12:47.612Z,34.43
2024-02-21T00:15:14.019Z,37.60
2024-02-21T00:17:40.762Z,41.23
2024-02-21T00:20:08.660Z,45.37
2024-02-21T00:22:35.302Z,38.50
2024-02-21T00:25:01.808Z,42.27
2024-02-21T00:27:28.727Z,40.53
2024-02-21T00:29:55.150Z,46.50
2024-02-21T00:32:21.858Z,43.07
2024-02-21T00:34:48.309Z,42.20
2024-02-21T00:37:14.839Z,37.00
2024-02-21T00:39:41.375Z,33.57
2024-02-21T00:42:08.590Z,39.33
2024-02-21T00:44:35.850Z,41.30
2024-02-21T00:47:02.353Z,42.50
2024-02-21T00:49:28.955Z,35.27
2024-02-21T00:51:55.361Z,38.97
2024-02-21T00:54:21.781Z,41.80
2024-02-21T00:56:48.208Z,42.60
2024-02-21T00:59:14.679Z,40.20
2024-02-21T01:01:43.960Z,38.53
2024-02-21T01:04:11.551Z,42.73
2024-02-21T01:06:38.088Z,40.50
2024-02-21T01:09:04.968Z,38.40
2024-02-21T01:11:31.472Z,37.20
2024-02-21T01:13:57.963Z,39.70
2024-02-21T01:16:24.502Z,33.00
2024-02-21T01:18:51.363Z,39.27
2024-02-21T01:21:17.843Z,40.60
2024-02-21T01:23:44.317Z,37.40
2024-02-21T01:26:14.187Z,40.70
2024-02-21T01:28:41.853Z,39.50
2024-02-21T01:31:08.934Z,44.30
2024-02-21T01:33:40.022Z,40.33
2024-02-21T01:36:10.015Z,38.87
2024-02-21T01:38:36.649Z,38.77
2024-02-21T01:41:03.569Z,40.77
2024-02-21T01:43:30.074Z,40.03
2024-02-21T01:45:58.122Z,38.10
2024-02-21T01:48:24.946Z,39.73
2024-02-21T01:50:52.925Z,38.50
2024-02-21T01:53:24.900Z,34.53
2024-02-21T01:55:51.352Z,35.37
2024-02-21T01:58:19.648Z,35.43
2024-02-21T02:00:48.993Z,35.30
2024-02-21T02:03:17.958Z,39.03
2024-02-21T02:05:45.628Z,37.47
2024-02-21T02:08:12.251Z,35.93
2024-02-21T02:10:40.416Z,34.87
2024-02-21T02:13:06.927Z,34.03
2024-02-21T02:15:43.149Z,36.40
2024-02-21T02:18:10.746Z,35.57
2024-02-21T02:20:37.717Z,34.63
2024-02-21T02:23:21.488Z,38.50
2024-02-21T02:25:53.065Z,33.33
2024-02-21T02:28:21.615Z,36.03
2024-02-21T02:30:48.676Z,40.30
2024-02-21T02:33:15.504Z,37.50
2024-02-21T02:35:42.164Z,35.87
2024-02-21T02:38:08.865Z,36.97
2024-02-21T02:40:35.904Z,35.97
2024-02-21T02:43:02.822Z,36.97
2024-02-21T02:45:29.477Z,36.47
2024-02-21T02:47:57.937Z,41.60
2024-02-21T02:50:25.641Z,34.20
2024-02-21T02:52:52.166Z,41.67
2024-02-21T02:55:19.018Z,32.53
2024-02-21T02:57:46.070Z,30.60
2024-02-21T03:00:13.977Z,35.53
2024-02-21T03:02:41.488Z,35.83
2024-02-21T03:05:16.880Z,30.43
2024-02-21T03:07:44.733Z,36.27
2024-02-21T03:10:12.297Z,36.83
2024-02-21T03:12:39.411Z,31.77
2024-02-21T03:15:06.839Z,31.97
2024-02-21T03:17:35.502Z,30.47
2024-02-21T03:20:11.034Z,33.30
2024-02-21T03:22:38.776Z,34.87
2024-02-21T03:25:06.790Z,35.77
2024-02-21T03:27:33.217Z,38.30
2024-02-21T03:29:59.679Z,38.43
2024-02-21T03:32:26.144Z,38.07
2024-02-21T03:34:52.636Z,36.13
2024-02-21T03:37:19.657Z,34.40
2024-02-21T03:39:46.491Z,36.57
2024-02-21T03:42:13.066Z,34.13
2024-02-21T03:44:40.178Z,38.77
2024-02-21T03:47:06.780Z,34.57
2024-02-21T03:49:33.263Z,39.37
2024-02-21T03:51:59.764Z,33.17
2024-02-21T03:54:26.154Z,35.50
2024-02-21T03:56:52.545Z,33.73
2024-02-21T03:59:19.008Z,40.00
2024-02-21T04:01:45.710Z,40.50
2024-02-21T04:04:12.414Z,37.07
2024-02-21T04:06:47.835Z,33.50
2024-02-21T04:09:14.309Z,34.83
2024-02-21T04:11:40.862Z,36.70
2024-02-21T04:14:07.405Z,37.63
2024-02-21T04:16:35.209Z,35.77
2024-02-21T04:19:03.104Z,38.23
2024-02-21T04:21:29.668Z,36.03
2024-02-21T04:23:56.496Z,39.87
2024-02-21T04:26:22.921Z,38.17
2024-02-21T04:28:49.369Z,40.10
2024-02-21T04:31:16.288Z,41.57
2024-02-21T04:33:43.080Z,40.83
2024-02-21T04:36:10.390Z,46.60
2024-02-21T04:38:36.884Z,32.00
2024-02-21T04:41:04.017Z,45.47
2024-02-21T04:43:30.609Z,39.40
2024-02-21T04:45:57.054Z,45.23
2024-02-21T04:48:23.502Z,40.30
2024-02-21T04:50:50.121Z,44.93
2024-02-21T04:53:17.111Z,44.13
2024-02-21T04:55:43.674Z,42.60
2024-02-21T04:58:10.332Z,38.40
2024-02-21T05:00:36.780Z,41.43
2024-02-21T05:03:03.848Z,42.10
2024-02-21T05:05:30.643Z,40.77
2024-02-21T05:07:57.269Z,42.03
2024-02-21T05:10:23.835Z,47.73
2024-02-21T05:12:50.842Z,40.33
2024-02-21T05:15:17.295Z,34.13
2024-02-21T05:17:44.662Z,42.93
2024-02-21T05:20:11.838Z,42.70
2024-02-21T05:22:38.577Z,42.33
2024-02-21T05:25:05.424Z,44.73
2024-02-21T05:27:31.886Z,37.80
2024-02-21T05:29:59.424Z,38.70
2024-02-21T05:32:27.271Z,42.90
2024-02-21T05:34:53.755Z,38.60
2024-02-21T05:37:20.197Z,41.03
2024-02-21T05:39:46.758Z,40.73
2024-02-21T05:42:13.336Z,39.63
2024-02-21T05:44:39.903Z,43.23
2024-02-21T05:47:10.949Z,43.90
2024-02-21T05:49:38.257Z,38.93
2024-02-21T05:52:07.014Z,38.57
2024-02-21T05:54:33.810Z,38.23
2024-02-21T05:57:00.462Z,41.33
2024-02-21T05:59:27.007Z,42.43
2024-02-21T06:01:59.899Z,38.60
2024-02-21T06:04:26.534Z,37.63
2024-02-21T06:06:53.040Z,41.30
2024-02-21T06:09:19.533Z,39.07
2024-02-21T06:11:47.474Z,37.37
2024-02-21T06:14:14.299Z,38.07
2024-02-21T06:16:41.064Z,37.93
2024-02-21T06:19:10.127Z,39.13
2024-02-21T06:21:37.823Z,36.50
2024-02-21T06:24:04.954Z,35.43
2024-02-21T06:26:31.401Z,33.80
2024-02-21T06:28:58.447Z,38.27
2024-02-21T06:31:25.101Z,36.93
2024-02-21T06:33:51.744Z,35.90
2024-02-21T06:36:18.274Z,40.90
2024-02-21T06:38:44.946Z,37.27
2024-02-21T06:41:19.698Z,36.37
2024-02-21T06:43:50.159Z,38.93
2024-02-21T06:46:27.382Z,37.20
2024-02-21T06:48:54.521Z,33.70
2024-02-21T06:51:21.123Z,39.60
2024-02-21T06:53:47.620Z,35.70
2024-02-21T06:56:14.439Z,35.47
2024-02-21T06:58:41.509Z,38.10
2024-02-21T07:01:08.867Z,36.07
2024-02-21T07:03:35.456Z,35.50
2024-02-21T07:06:02.454Z,32.03
2024-02-21T07:08:29.107Z,39.13
2024-02-21T07:10:55.722Z,38.40
2024-02-21T07:13:23.749Z,37.97
2024-02-21T07:15:50.349Z,36.10
2024-02-21T07:18:17.323Z,37.07
2024-02-21T07:20:43.802Z,33.53
2024-02-21T07:23:10.531Z,31.90
2024-02-21T07:25:37.074Z,33.63
2024-02-21T07:28:04.111Z,36.80
2024-02-21T07:30:30.598Z,35.67
2024-02-21T07:32:57.052Z,34.90
2024-02-21T07:35:23.705Z,31.10
2024-02-21T07:37:50.361Z,33.80
2024-02-21T07:40:17.783Z,36.07
2024-02-21T07:42:46.937Z,33.90
2024-02-21T07:45:15.321Z,33.50
2024-02-21T07:47:41.927Z,33.63
2024-02-21T07:50:09.181Z,36.33
2024-02-21T07:52:35.880Z,33.33
2024-02-21T07:55:02.390Z,31.67
2024-02-21T07:57:29.058Z,34.80
2024-02-21T07:59:55.541Z,37.73
2024-02-21T08:02:22.011Z,35.43
2024-02-21T08:04:48.511Z,30.23
2024-02-21T08:07:15.086Z,35.73
2024-02-21T08:09:41.879Z,31.57
2024-02-21T08:12:08.714Z,32.03
2024-02-21T08:14:35.166Z,32.97
2024-02-21T08:17:02.818Z,34.93
2024-02-21T08:19:29.406Z,35.73
2024-02-21T08:21:55.904Z,32.33
2024-02-21T08:24:24.000Z,37.43
2024-02-21T08:26:50.506Z,33.73
2024-02-21T08:29:16.954Z,39.37
2024-02-21T08:31:43.543Z,29.43
2024-02-21T08:34:10.184Z,30.07
2024-02-21T08:36:37.246Z,31.03
2024-02-21T08:39:05.665Z,37.73
2024-02-21T08:41:46.734Z,33.53
2024-02-21T08:44:18.805Z,29.77
2024-02-21T08:46:45.448Z,26.80
2024-02-21T08:49:12.237Z,27.63
2024-02-21T08:51:39.195Z,22.50
2024-02-21T08:54:05.831Z,28.87
2024-02-21T08:56:32.484Z,21.50
2024-02-21T08:58:59.172Z,23.20
2024-02-21T09:01:25.770Z,24.63
2024-02-21T09:03:54.936Z,22.57
2024-02-21T09:06:21.635Z,23.30
2024-02-21T09:08:48.201Z,19.43
2024-02-21T09:11:14.980Z,22.37
2024-02-21T09:13:41.802Z,21.80
2024-02-21T09:16:08.283Z,17.57
2024-02-21T09:18:34.760Z,18.13
2024-02-21T09:21:04.479Z,25.53
2024-02-21T09:23:32.556Z,16.70
2024-02-21T09:26:03.299Z,17.00
2024-02-21T09:28:29.921Z,21.33
2024-02-21T09:30:56.399Z,15.93
2024-02-21T09:33:30.577Z,18.30
2024-02-21T09:35:59.672Z,14.77
2024-02-21T09:38:26.278Z,17.87
2024-02-21T09:41:01.241Z,19.13
2024-02-21T09:43:28.845Z,17.57
2024-02-21T09:45:57.731Z,17.20
2024-02-21T09:48:42.068Z,18.77
2024-02-21T09:51:11.691Z,16.03
2024-02-21T09:53:41.740Z,15.13
2024-02-21T09:56:10.280Z,20.07
2024-02-21T09:58:38.581Z,18.27
2024-02-21T10:01:17.093Z,16.13
2024-02-21T10:03:52.278Z,15.77
2024-02-21T10:06:18.836Z,14.00
2024-02-21T10:08:53.133Z,14.57
2024-02-21T10:11:26.556Z,18.10
2024-02-21T10:14:05.356Z,14.03
2024-02-21T10:16:31.924Z,16.60
2024-02-21T10:18:58.436Z,16.57
2024-02-21T10:21:24.892Z,15.13
2024-02-21T10:23:52.000Z,13.93
2024-02-21T10:26:21.897Z,16.13
2024-02-21T10:28:49.794Z,12.47
2024-02-21T10:31:27.665Z,15.57
2024-02-21T10:34:04.932Z,14.10
2024-02-21T10:36:31.927Z,16.33
2024-02-21T10:38:58.640Z,12.37
2024-02-21T10:41:25.732Z,13.30
2024-02-21T10:43:55.193Z,11.27
2024-02-21T10:46:23.427Z,12.60
2024-02-21T10:49:08.591Z,14.10
2024-02-21T10:51:38.514Z,14.60
2024-02-21T10:54:23.870Z,13.13
2024-02-21T10:56:52.493Z,10.90
2024-02-21T10:59:19.331Z,10.50
2024-02-21T11:01:45.965Z,8.77
2024-02-21T11:04:15.530Z,12.53
2024-02-21T11:06:43.713Z,10.70
2024-02-21T11:09:12.518Z,9.50
2024-02-21T11:11:44.751Z,14.33
2024-02-21T11:14:18.507Z,9.73
2024-02-21T11:16:45.483Z,6.27
2024-02-21T11:19:26.752Z,7.03
2024-02-21T11:21:54.747Z,8.20
2024-02-21T11:24:33.705Z,9.53
2024-02-21T11:27:10.120Z,8.07
2024-02-21T11:29:46.313Z,7.00
2024-02-21T11:32:16.552Z,10.90
2024-02-21T11:34:55.008Z,9.03
2024-02-21T11:37:21.753Z,7.87
2024-02-21T11:39:51.467Z,6.03
2024-02-21T11:42:17.944Z,11.63
2024-02-21T11:44:44.476Z,7.73
2024-02-21T11:47:11.354Z,8.63
2024-02-21T11:49:42.702Z,7.27
2024-02-21T11:52:09.292Z,7.43
2024-02-21T11:54:35.955Z,8.50
2024-02-21T11:57:02.708Z,5.87
2024-02-21T11:59:33.093Z,5.97
2024-02-21T12:02:00.592Z,6.87
2024-02-21T12:04:27.266Z,5.57
2024-02-21T12:06:55.335Z,8.03
2024-02-21T12:09:23.876Z,9.53
2024-02-21T12:12:01.953Z,6.83
2024-02-21T12:14:30.283Z,6.77
2024-02-21T12:16:57.311Z,7.33
2024-02-21T12:19:23.783Z,7.20
2024-02-21T12:21:55.603Z,8.33
2024-02-21T12:24:26.441Z,7.27
2024-02-21T12:26:54.094Z,9.60
2024-02-21T12:29:21.655Z,10.10
2024-02-21T12:31:48.651Z,9.10
2024-02-21T12:34:16.503Z,10.07
2024-02-21T12:36:44.820Z,11.33
2024-02-21T12:39:12.210Z,10.10
2024-02-21T12:41:45.272Z,13.70
2024-02-21T12:44:15.492Z,12.53
2024-02-21T12:46:42.538Z,10.00
2024-02-21T12:49:09.328Z,9.83
2024-02-21T12:51:36.339Z,12.47
2024-02-21T12:54:04.056Z,15.73
2024-02-21T12:56:32.069Z,13.20
2024-02-21T12:58:59.070Z,14.67
2024-02-21T13:01:25.883Z,13.73
2024-02-21T13:03:52.419Z,16.13
2024-02-21T13:06:20.052Z,15.50
2024-02-21T13:08:47.147Z,11.83
2024-02-21T13:11:14.315Z,12.97
2024-02-21T13:13:41.121Z,12.50
2024-02-21T13:16:08.246Z,14.97
2024-02-21T13:18:39.006Z,17.10
2024-02-21T13:21:08.559Z,13.47
2024-02-21T13:23:35.027Z,15.33
2024-02-21T13:26:01.659Z,15.50
2024-02-21T13:28:28.767Z,17.10
2024-02-21T13:30:55.283Z,13.87
2024-02-21T13:33:21.873Z,12.13
2024-02-21T13:35:48.359Z,15.60
2024-02-21T13:38:15.445Z,11.40
2024-02-21T13:40:43.543Z,14.53
2024-02-21T13:43:11.807Z,9.13
2024-02-21T13:45:38.841Z,11.93
2024-02-21T13:48:07.501Z,16.30
2024-02-21T13:50:41.102Z,15.17
2024-02-21T13:53:07.564Z,12.87
2024-02-21T13:55:34.110Z,13.33
2024-02-21T13:58:00.768Z,11.83
2024-02-21T14:00:28.308Z,9.13
2024-02-21T14:02:55.580Z,9.80
2024-02-21T14:05:22.225Z,8.13
2024-02-21T14:07:48.884Z,14.73
2024-02-21T14:10:15.488Z,7.37
2024-02-21T14:12:42.149Z,7.63
2024-02-21T14:15:10.133Z,8.87
2024-02-21T14:17:36.653Z,5.73
2024-02-21T14:20:05.989Z,8.87
2024-02-21T14:22:32.498Z,8.13
2024-02-21T14:24:59.215Z,12.33
2024-02-21T14:27:25.668Z,22.37
2024-02-21T14:29:52.111Z,11.30
2024-02-21T14:32:18.642Z,19.53
2024-02-21T14:34:45.331Z,15.87
2024-02-21T14:37:11.867Z,11.17
2024-02-21T14:39:38.338Z,6.47
2024-02-21T14:42:05.004Z,8.60
2024-02-21T14:44:31.433Z,7.23
2024-02-21T14:46:57.929Z,6.47
2024-02-21T14:49:26.301Z,6.87
2024-02-21T14:51:53.437Z,6.40
2024-02-21T14:54:20.567Z,7.83
2024-02-21T14:56:47.810Z,17.70
2024-02-21T14:59:21.325Z,22.13
2024-02-21T15:01:52.556Z,12.07
2024-02-21T15:04:19.103Z,10.23
2024-02-21T15:06:46.377Z,12.50
2024-02-21T15:09:16.045Z,8.43
2024-02-21T15:11:44.164Z,12.23
2024-02-21T15:14:12.074Z,8.10
2024-02-21T15:16:38.859Z,15.50
2024-02-21T15:19:05.528Z,14.07
2024-02-21T15:21:32.013Z,15.37
2024-02-21T15:23:59.444Z,14.53
2024-02-21T15:26:25.886Z,18.03
2024-02-21T15:28:52.468Z,8.30
2024-02-21T15:31:25.485Z,7.17
2024-02-21T15:33:53.544Z,7.47
2024-02-21T15:36:20.455Z,9.63
2024-02-21T15:38:47.503Z,8.30
2024-02-21T15:41:15.410Z,7.07
2024-02-21T15:43:43.784Z,8.27
2024-02-21T15:46:13.456Z,11.70
2024-02-21T15:48:40.124Z,10.23
2024-02-21T15:51:07.492Z,11.57
2024-02-21T15:53:34.029Z,22.23
2024-02-21T15:56:00.630Z,8.13
2024-02-21T15:58:28.813Z,7.20
2024-02-21T16:00:55.393Z,11.47
2024-02-21T16:03:22.837Z,10.17
2024-02-21T16:05:50.021Z,11.17
2024-02-21T16:08:19.380Z,10.47
2024-02-21T16:10:46.087Z,10.47
2024-02-21T16:13:12.698Z,10.47
2024-02-21T16:15:39.359Z,11.70
2024-02-21T16:18:06.576Z,13.13
2024-02-21T16:20:33.292Z,10.37
2024-02-21T16:23:04.167Z,9.10
2024-02-21T16:25:30.871Z,9.90
2024-02-21T16:27:58.891Z,10.10
2024-02-21T16:30:25.500Z,10.43
2024-02-21T16:32:53.276Z,11.27
2024-02-21T16:35:20.115Z,7.40
2024-02-21T16:37:46.834Z,5.97
2024-02-21T16:40:13.325Z,8.50
2024-02-21T16:42:39.912Z,9.10
2024-02-21T16:45:06.824Z,8.27
2024-02-21T16:47:33.339Z,11.53
2024-02-21T16:49:59.960Z,5.73
2024-02-21T16:52:27.738Z,7.87
2024-02-21T16:54:54.162Z,9.07
2024-02-21T16:57:20.567Z,5.93
2024-02-21T16:59:47.644Z,10.70
2024-02-21T17:02:14.292Z,10.23
2024-02-21T17:04:40.990Z,7.47
2024-02-21T17:07:07.667Z,8.40
2024-02-21T17:09:34.486Z,10.67
2024-02-21T17:12:01.070Z,11.10
2024-02-21T17:14:27.607Z,9.97
2024-02-21T17:16:55.862Z,13.97
2024-02-21T17:19:22.620Z,12.10
2024-02-21T17:21:49.100Z,7.87
2024-02-21T17:24:15.584Z,7.80
2024-02-21T17:26:42.106Z,8.63
2024-02-21T17:29:09.673Z,9.13
2024-02-21T17:31:36.249Z,10.67
2024-02-21T17:34:02.780Z,9.87
2024-02-21T17:36:29.277Z,10.93
2024-02-21T17:38:55.714Z,8.40
2024-02-21T17:41:22.716Z,9.10
2024-02-21T17:43:49.832Z,9.10
2024-02-21T17:46:16.855Z,9.63
2024-02-21T17:48:43.392Z,8.37
2024-02-21T17:51:10.023Z,9.17
2024-02-21T17:53:36.646Z,10.80
2024-02-21T17:56:04.310Z,9.77
2024-02-21T17:58:31.600Z,10.53
2024-02-21T18:01:00.920Z,7.00
2024-02-21T18:03:30.094Z,10.70
2024-02-21T18:06:04.757Z,7.27
2024-02-21T18:08:32.145Z,9.97
2024-02-21T18:10:58.902Z,8.53
2024-02-21T18:13:25.608Z,9.47
2024-02-21T18:15:52.880Z,8.87
2024-02-21T18:18:19.366Z,8.17
2024-02-21T18:20:46.151Z,8.40
2024-02-21T18:23:12.937Z,14.63
2024-02-21T18:25:41.156Z,11.23
2024-02-21T18:28:08.018Z,7.87
2024-02-21T18:30:34.459Z,8.30
2024-02-21T18:33:03.311Z,7.00
2024-02-21T18:35:29.845Z,11.97
2024-02-21T18:37:56.951Z,7.87
2024-02-21T18:40:23.542Z,9.97
2024-02-21T18:42:50.164Z,7.60
2024-02-21T18:45:16.905Z,12.37
2024-02-21T18:47:44.448Z,9.23
2024-02-21T18:50:12.593Z,10.80
2024-02-21T18:52:39.210Z,13.57
2024-02-21T18:55:06.437Z,12.90
2024-02-21T18:57:34.538Z,9.20
2024-02-21T19:00:07.895Z,10.37
2024-02-21T19:02:34.616Z,10.53
2024-02-21T19:05:01.258Z,7.57
2024-02-21T19:07:29.396Z,11.47
2024-02-21T19:09:55.893Z,9.07
2024-02-21T19:12:22.318Z,9.73
2024-02-21T19:14:48.772Z,7.13
2024-02-21T19:17:15.225Z,9.30
2024-02-21T19:19:43.394Z,9.17
2024-02-21T19:22:10.012Z,12.63
2024-02-21T19:24:37.298Z,10.67
2024-02-21T19:27:04.230Z,9.37
2024-02-21T19:29:30.653Z,8.60
2024-02-21T19:31:57.813Z,9.13
2024-02-21T19:34:25.680Z,11.07
2024-02-21T19:36:52.142Z,6.83
2024-02-21T19:39:18.545Z,6.63
2024-02-21T19:41:46.601Z,8.03
2024-02-21T19:44:13.249Z,10.00
2024-02-21T19:46:40.005Z,7.67
2024-02-21T19:49:06.685Z,9.03
2024-02-21T19:51:33.161Z,11.93
2024-02-21T19:54:10.055Z,10.13
2024-02-21T19:56:46.326Z,8.57
2024-02-21T19:59:13.215Z,8.27
2024-02-21T20:01:42.818Z,6.60
2024-02-21T20:04:10.298Z,10.30
2024-02-21T20:06:36.769Z,7.50
2024-02-21T20:09:06.738Z,6.83
2024-02-21T20:11:33.758Z,7.37
2024-02-21T20:14:02.144Z,4.93
2024-02-21T20:16:30.436Z,5.27
2024-02-21T20:18:58.436Z,5.43
2024-02-21T20:21:24.972Z,5.43
2024-02-21T20:23:51.426Z,7.30
2024-02-21T20:26:18.484Z,6.37
2024-02-21T20:28:44.945Z,5.03
2024-02-21T20:31:11.561Z,6.23
2024-02-21T20:33:38.059Z,6.97
2024-02-21T20:36:05.923Z,6.13
2024-02-21T20:38:32.545Z,7.90
2024-02-21T20:40:59.210Z,6.77
2024-02-21T20:43:25.684Z,6.73
2024-02-21T20:45:52.117Z,8.27
2024-02-21T20:48:18.671Z,7.97
2024-02-21T20:50:45.201Z,5.80
2024-02-21T20:53:11.858Z,6.60
2024-02-21T20:55:39.403Z,5.67
2024-02-21T20:58:05.858Z,7.60
2024-02-21T21:00:32.913Z,9.60
2024-02-21T21:03:00.135Z,6.70
2024-02-21T21:05:27.298Z,6.50
2024-02-21T21:07:53.853Z,10.07
2024-02-21T21:10:20.456Z,9.07
2024-02-21T21:12:46.983Z,7.57
2024-02-21T21:15:13.420Z,7.63
2024-02-21T21:17:40.213Z,7.07
2024-02-21T21:20:11.485Z,7.83
2024-02-21T21:22:40.721Z,8.47
2024-02-21T21:25:08.201Z,6.00
2024-02-21T21:27:34.686Z,6.07
2024-02-21T21:30:01.078Z,8.00
2024-02-21T21:32:28.411Z,6.93
2024-02-21T21:34:55.021Z,7.03
2024-02-21T21:37:23.962Z,6.33
2024-02-21T21:39:55.672Z,7.77
2024-02-21T21:42:23.470Z,8.57
2024-02-21T21:44:50.047Z,10.30
2024-02-21T21:47:18.027Z,6.03
2024-02-21T21:49:44.695Z,8.27
2024-02-21T21:52:12.741Z,6.83
2024-02-21T21:54:40.886Z,10.40
2024-02-21T21:57:07.519Z,5.47
2024-02-21T21:59:34.038Z,9.30
2024-02-21T22:02:02.053Z,7.87
2024-02-21T22:04:29.921Z,7.80
2024-02-21T22:06:56.531Z,7.43
2024-02-21T22:09:23.523Z,6.80
2024-02-21T22:11:49.993Z,8.17
2024-02-21T22:14:16.792Z,8.87
2024-02-21T22:16:43.436Z,6.03
2024-02-21T22:19:10.235Z,4.50
2024-02-21T22:21:36.790Z,6.27
2024-02-21T22:24:03.266Z,9.50
2024-02-21T22:26:29.698Z,7.83
2024-02-21T22:28:57.810Z,5.73
2024-02-21T22:31:24.334Z,6.20
2024-02-21T22:33:50.807Z,5.17
2024-02-21T22:36:20.838Z,8.47
2024-02-21T22:38:49.568Z,6.63
2024-02-21T22:41:16.100Z,6.20
2024-02-21T22:43:43.492Z,7.63
2024-02-21T22:46:11.998Z,5.73
2024-02-21T22:48:38.728Z,5.03
2024-02-21T22:51:05.397Z,6.33
2024-02-21T22:53:31.878Z,8.30
2024-02-21T22:55:58.393Z,7.40
2024-02-21T22:58:26.315Z,5.27
2024-02-21T23:00:53.951Z,5.53
2024-02-21T23:03:45.714Z,7.30
2024-02-21T23:06:12.376Z,7.03
2024-02-21T23:08:39.414Z,6.30
2024-02-21T23:11:06.563Z,9.07
2024-02-21T23:13:33.825Z,6.47
2024-02-21T23:16:00.541Z,8.17
2024-02-21T23:18:27.009Z,8.13
2024-02-21T23:20:54.475Z,9.17
2024-02-21T23:23:21.162Z,6.33
2024-02-21T23:25:47.794Z,6.83
2024-02-21T23:28:14.465Z,10.00
2024-02-21T23:30:40.983Z,8.67
2024-02-21T23:33:07.805Z,8.73
2024-02-21T23:35:37.832Z,6.17
2024-02-21T23:38:08.770Z,7.50
2024-02-21T23:40:35.393Z,8.27
2024-02-21T23:43:02.146Z,8.70
2024-02-21T23:45:28.679Z,9.60
2024-02-21T23:47:55.125Z,6.00
2024-02-21T23:50:22.140Z,6.93
2024-02-21T23:52:49.593Z,7.10
2024-02-21T23:55:16.129Z,6.17
2024-02-21T23:57:42.763Z,7.47
